createdAt,value
2022-09-21T00:01:30.810Z,101479.06
2022-09-21T00:04:01.688Z,101484.47
2022-09-21T00:06:32.444Z,101490.13
2022-09-21T00:09:04.732Z,101490.81
2022-09-21T00:11:36.299Z,101486.31
2022-09-21T00:14:10.951Z,101483.81
2022-09-21T00:16:40.203Z,101490.72
2022-09-21T00:19:08.330Z,101481.56
2022-09-21T00:21:38.569Z,101480.53
2022-09-21T00:24:07.833Z,101477.59
2022-09-21T00:26:35.484Z,101474.72
2022-09-21T00:29:04.901Z,101473.06
2022-09-21T00:31:37.927Z,101467.38
2022-09-21T00:34:08.487Z,101469.47
2022-09-21T00:36:37.501Z,101464.13
2022-09-21T00:39:10.653Z,101475.63
2022-09-21T00:41:39.152Z,101480.44
2022-09-21T00:44:30.780Z,101474.59
2022-09-21T00:47:12.682Z,101483.88
2022-09-21T00:49:50.090Z,101486.06
2022-09-21T00:52:20.402Z,101488.84
2022-09-21T00:54:59.676Z,101488.03
2022-09-21T00:57:31.476Z,101487.13
2022-09-21T01:00:02.793Z,101483.97
2022-09-21T01:02:30.848Z,101485.03
2022-09-21T01:05:00.191Z,101483.16
2022-09-21T01:07:32.734Z,101477.50
2022-09-21T01:10:06.553Z,101485.63
2022-09-21T01:12:55.483Z,101483.06
2022-09-21T01:15:35.289Z,101478.88
2022-09-21T01:18:42.758Z,101484.03
2022-09-21T01:21:16.927Z,101479.22
2022-09-21T01:23:59.817Z,101481.28
2022-09-21T01:26:46.730Z,101487.88
2022-09-21T01:29:21.326Z,101486.53
2022-09-21T01:32:33.022Z,101482.09
2022-09-21T01:35:16.314Z,101479.84
2022-09-21T01:37:58.906Z,101472.63
2022-09-21T01:40:41.982Z,101476.69
2022-09-21T01:43:26.879Z,101473.63
2022-09-21T01:46:02.485Z,101476.84
2022-09-21T01:48:35.894Z,101477.50
2022-09-21T01:51:15.777Z,101460.03
2022-09-21T01:53:57.979Z,101463.00
2022-09-21T01:56:41.076Z,101463.75
2022-09-21T01:59:18.819Z,101469.13
2022-09-21T02:01:54.403Z,101461.84
2022-09-21T02:04:23.715Z,101471.13
2022-09-21T02:06:53.106Z,101469.88
2022-09-21T02:09:23.094Z,101470.47
2022-09-21T02:11:52.541Z,101463.94
2022-09-21T02:14:26.037Z,101463.72
2022-09-21T02:17:26.493Z,101459.16
2022-09-21T02:19:59.280Z,101451.28
2022-09-21T02:22:42.482Z,101450.88
2022-09-21T02:25:45.678Z,101454.94
2022-09-21T02:28:51.808Z,101446.59
2022-09-21T02:32:12.448Z,101449.53
2022-09-21T02:35:00.916Z,101447.63
2022-09-21T02:38:00.259Z,101448.59
2022-09-21T02:40:41.139Z,101441.97
2022-09-21T02:43:21.337Z,101439.47
2022-09-21T02:46:00.159Z,101439.19
2022-09-21T02:48:43.188Z,101451.03
2022-09-21T02:51:20.427Z,101444.19
2022-09-21T02:53:51.835Z,101447.53
2022-09-21T02:56:20.391Z,101439.66
2022-09-21T02:58:54.791Z,101442.53
2022-09-21T03:01:25.638Z,101446.50
2022-09-21T03:03:53.993Z,101446.75
2022-09-21T03:06:21.765Z,101445.47
2022-09-21T03:08:49.847Z,101444.25
2022-09-21T03:11:19.112Z,101453.19
2022-09-21T03:13:47.370Z,101462.63
2022-09-21T03:16:15.718Z,101454.59
2022-09-21T03:18:44.551Z,101455.44
2022-09-21T03:21:13.315Z,101456.06
2022-09-21T03:23:41.540Z,101456.91
2022-09-21T03:26:10.488Z,101449.88
2022-09-21T03:28:39.117Z,101450.09
2022-09-21T03:31:07.534Z,101452.13
2022-09-21T03:33:35.371Z,101450.84
2022-09-21T03:36:08.824Z,101459.75
2022-09-21T03:38:39.025Z,101453.94
2022-09-21T03:41:07.767Z,101451.38
2022-09-21T03:43:35.542Z,101455.44
2022-09-21T03:46:04.045Z,101455.34
2022-09-21T03:48:33.109Z,101453.09
2022-09-21T03:51:01.596Z,101457.06
2022-09-21T03:53:34.862Z,101453.25
2022-09-21T03:56:03.254Z,101450.44
2022-09-21T03:58:31.134Z,101451.94
2022-09-21T04:01:04.792Z,101453.72
2022-09-21T04:03:32.727Z,101454.41
2022-09-21T04:06:00.672Z,101451.34
2022-09-21T04:08:28.540Z,101461.06
2022-09-21T04:10:56.738Z,101460.91
2022-09-21T04:13:25.310Z,101453.41
2022-09-21T04:15:53.665Z,101457.78
2022-09-21T04:18:24.895Z,101452.81
2022-09-21T04:20:54.890Z,101449.84
2022-09-21T04:23:23.664Z,101457.84
2022-09-21T04:25:52.091Z,101452.78
2022-09-21T04:28:20.168Z,101457.72
2022-09-21T04:30:48.018Z,101462.22
2022-09-21T04:33:23.083Z,101456.25
2022-09-21T04:35:58.012Z,101457.56
2022-09-21T04:38:25.985Z,101456.75
2022-09-21T04:40:57.408Z,101454.88
2022-09-21T04:43:28.733Z,101458.84
2022-09-21T04:45:56.297Z,101466.06
2022-09-21T04:48:26.864Z,101456.53
2022-09-21T04:50:54.345Z,101460.41
2022-09-21T04:53:21.906Z,101452.91
2022-09-21T04:55:49.974Z,101472.94
2022-09-21T04:58:22.451Z,101462.56
2022-09-21T05:00:54.220Z,101456.63
2022-09-21T05:03:24.268Z,101455.81
2022-09-21T05:05:56.251Z,101456.34
2022-09-21T05:08:44.409Z,101460.53
2022-09-21T05:11:16.294Z,101467.34
2022-09-21T05:13:43.916Z,101458.59
2022-09-21T05:16:12.553Z,101473.06
2022-09-21T05:18:41.751Z,101465.75
2022-09-21T05:21:11.899Z,101462.47
2022-09-21T05:23:40.023Z,101468.44
2022-09-21T05:26:08.230Z,101462.41
2022-09-21T05:28:40.337Z,101465.53
2022-09-21T05:31:32.415Z,101465.75
2022-09-21T05:34:36.438Z,101468.84
2022-09-21T05:37:45.034Z,101475.06
2022-09-21T05:40:18.889Z,101472.03
2022-09-21T05:42:47.251Z,101470.56
2022-09-21T05:45:21.558Z,101474.22
2022-09-21T05:48:13.987Z,101476.81
2022-09-21T05:50:52.637Z,101474.88
2022-09-21T05:53:49.962Z,101468.84
2022-09-21T05:56:48.926Z,101472.34
2022-09-21T05:59:38.618Z,101485.47
2022-09-21T06:02:25.312Z,101470.41
2022-09-21T06:05:00.347Z,101473.25
2022-09-21T06:07:27.970Z,101481.06
2022-09-21T06:09:56.380Z,101481.16
2022-09-21T06:12:24.406Z,101478.00
2022-09-21T06:14:52.152Z,101487.81
2022-09-21T06:17:20.080Z,101484.31
2022-09-21T06:19:47.723Z,101489.88
2022-09-21T06:22:15.265Z,101490.63
2022-09-21T06:24:42.925Z,101500.97
2022-09-21T06:27:10.489Z,101504.94
2022-09-21T06:29:37.926Z,101511.34
2022-09-21T06:32:05.691Z,101505.28
2022-09-21T06:34:33.279Z,101498.94
2022-09-21T06:37:01.432Z,101504.81
2022-09-21T06:39:30.790Z,101499.28
2022-09-21T06:41:59.547Z,101510.09
2022-09-21T06:44:27.514Z,101517.75
2022-09-21T06:46:55.275Z,101515.25
2022-09-21T06:49:22.774Z,101513.75
2022-09-21T06:51:50.648Z,101512.03
2022-09-21T06:54:19.869Z,101510.31
2022-09-21T06:56:48.429Z,101504.38
2022-09-21T06:59:21.139Z,101512.03
2022-09-21T07:01:49.074Z,101506.56
2022-09-21T07:04:16.761Z,101510.63
2022-09-21T07:06:44.165Z,101511.34
2022-09-21T07:12:00.377Z,101502.50
2022-09-21T07:14:28.167Z,101511.03
2022-09-21T07:16:55.825Z,101506.94
2022-09-21T07:19:23.255Z,101505.28
2022-09-21T07:21:53.320Z,101500.53
2022-09-21T07:24:20.822Z,101511.88
2022-09-21T07:26:50.282Z,101504.91
2022-09-21T07:29:18.526Z,101506.38
2022-09-21T07:31:48.941Z,101514.22
2022-09-21T07:34:16.481Z,101509.34
2022-09-21T07:36:44.627Z,101509.00
2022-09-21T07:39:12.648Z,101500.00
2022-09-21T07:41:40.192Z,101503.91
2022-09-21T07:44:07.797Z,101511.56
2022-09-21T07:46:41.251Z,101506.78
2022-09-21T07:49:13.916Z,101512.09
2022-09-21T07:51:46.628Z,101516.69
2022-09-21T07:54:16.220Z,101519.84
2022-09-21T07:57:03.564Z,101515.81
2022-09-21T07:59:33.052Z,101524.16
2022-09-21T08:02:01.106Z,101516.94
2022-09-21T08:04:29.701Z,101516.59
2022-09-21T08:06:57.481Z,101522.47
2022-09-21T08:09:30.388Z,101522.47
2022-09-21T08:12:01.712Z,101519.19
2022-09-21T08:14:29.827Z,101530.16
2022-09-21T08:16:57.867Z,101521.31
2022-09-21T08:19:27.300Z,101529.03
2022-09-21T08:21:57.864Z,101529.84
2022-09-21T08:24:29.214Z,101522.88
2022-09-21T08:26:57.932Z,101531.56
2022-09-21T08:29:26.644Z,101525.25
2022-09-21T08:31:54.345Z,101539.25
2022-09-21T08:34:23.484Z,101531.91
2022-09-21T08:36:55.232Z,101531.81
2022-09-21T08:39:24.101Z,101534.22
2022-09-21T08:42:39.590Z,101533.81
2022-09-21T08:45:17.496Z,101532.75
2022-09-21T08:47:52.629Z,101533.56
2022-09-21T08:50:22.889Z,101538.91
2022-09-21T08:52:58.299Z,101539.81
2022-09-21T08:55:26.026Z,101531.97
2022-09-21T08:57:54.149Z,101535.31
2022-09-21T09:00:22.085Z,101537.09
2022-09-21T09:03:11.329Z,101531.34
2022-09-21T09:06:10.246Z,101531.00
2022-09-21T09:09:02.575Z,101536.28
2022-09-21T09:11:30.459Z,101534.38
2022-09-21T09:14:25.535Z,101528.63
2022-09-21T09:17:33.917Z,101531.50
2022-09-21T09:20:16.556Z,101534.22
2022-09-21T09:23:03.345Z,101532.94
2022-09-21T09:25:39.060Z,101526.53
2022-09-21T09:28:14.394Z,101537.56
2022-09-21T09:30:43.247Z,101539.94
2022-09-21T09:33:21.920Z,101532.50
2022-09-21T09:35:51.402Z,101533.84
2022-09-21T09:38:28.699Z,101533.38
2022-09-21T09:41:17.438Z,101536.59
2022-09-21T09:43:57.509Z,101533.81
2022-09-21T09:46:40.335Z,101532.75
2022-09-21T09:49:19.903Z,101527.22
2022-09-21T09:51:49.117Z,101531.56
2022-09-21T09:54:20.467Z,101530.69
2022-09-21T09:56:47.937Z,101531.09
2022-09-21T09:59:33.372Z,101533.84
2022-09-21T10:02:04.184Z,101529.44
2022-09-21T10:04:35.462Z,101529.38
2022-09-21T10:07:03.050Z,101528.22
2022-09-21T10:09:34.820Z,101524.34
2022-09-21T10:12:24.518Z,101522.84
2022-09-21T10:15:01.876Z,101516.81
2022-09-21T10:17:29.468Z,101526.38
2022-09-21T10:20:04.966Z,101536.25
2022-09-21T10:22:32.485Z,101520.19
2022-09-21T10:25:02.125Z,101520.94
2022-09-21T10:27:35.972Z,101522.78
2022-09-21T10:30:04.240Z,101534.34
2022-09-21T10:32:31.753Z,101529.50
2022-09-21T10:35:08.251Z,101531.72
2022-09-21T10:37:41.412Z,101524.25
2022-09-21T10:40:27.333Z,101523.94
2022-09-21T10:43:01.857Z,101532.28
2022-09-21T10:45:37.463Z,101531.41
2022-09-21T10:48:17.386Z,101527.09
2022-09-21T10:50:47.344Z,101526.44
2022-09-21T10:53:35.553Z,101518.59
2022-09-21T10:56:17.749Z,101514.22
2022-09-21T10:59:12.066Z,101509.22
2022-09-21T11:01:46.166Z,101501.59
2022-09-21T11:04:39.206Z,101504.84
2022-09-21T11:07:48.844Z,101500.47
2022-09-21T11:10:22.068Z,101504.72
2022-09-21T11:13:08.334Z,101501.53
2022-09-21T11:15:54.840Z,101499.88
2022-09-21T11:18:50.467Z,101495.63
2022-09-21T11:21:34.966Z,101499.66
2022-09-21T11:24:08.460Z,101495.25
2022-09-21T11:26:49.810Z,101494.91
2022-09-21T11:29:55.655Z,101490.59
2022-09-21T11:32:45.432Z,101488.59
2022-09-21T11:35:33.185Z,101496.56
2022-09-21T11:38:12.628Z,101491.50
2022-09-21T11:40:40.592Z,101490.00
2022-09-21T11:43:22.803Z,101497.25
2022-09-21T11:46:07.234Z,101497.03
2022-09-21T11:48:47.008Z,101496.06
2022-09-21T11:51:39.135Z,101494.44
2022-09-21T11:54:26.586Z,101505.78
2022-09-21T11:57:20.545Z,101503.38
2022-09-21T12:00:08.027Z,101494.34
2022-09-21T12:02:55.391Z,101502.06
2022-09-21T12:05:26.584Z,101494.94
2022-09-21T12:08:03.928Z,101487.78
2022-09-21T12:11:00.874Z,101478.81
2022-09-21T12:14:06.084Z,101488.78
2022-09-21T12:17:05.688Z,101482.47
2022-09-21T12:20:06.610Z,101483.91
2022-09-21T12:22:47.770Z,101484.75
2022-09-21T12:25:23.010Z,101492.31
2022-09-21T12:28:01.053Z,101494.53
2022-09-21T12:30:36.935Z,101482.41
2022-09-21T12:33:43.387Z,101485.97
2022-09-21T12:36:41.116Z,101472.25
2022-09-21T12:39:29.549Z,101476.72
2022-09-21T12:42:11.787Z,101471.44
2022-09-21T12:44:55.121Z,101478.41
2022-09-21T12:47:38.528Z,101463.28
2022-09-21T12:50:32.903Z,101471.53
2022-09-21T12:53:02.217Z,101474.56
2022-09-21T12:55:51.440Z,101470.19
2022-09-21T12:58:30.195Z,101463.13
2022-09-21T13:01:33.183Z,101458.50
2022-09-21T13:04:30.792Z,101459.53
2022-09-21T13:07:18.470Z,101462.75
2022-09-21T13:09:52.182Z,101450.75
2022-09-21T13:12:28.849Z,101457.03
2022-09-21T13:15:05.155Z,101450.00
2022-09-21T13:17:34.649Z,101447.00
2022-09-21T13:20:17.720Z,101443.75
2022-09-21T13:22:46.335Z,101443.78
2022-09-21T13:25:39.282Z,101434.63
2022-09-21T13:28:20.274Z,101438.31
2022-09-21T13:31:39.918Z,101446.69
2022-09-21T13:34:32.960Z,101440.03
2022-09-21T13:37:16.449Z,101453.34
2022-09-21T13:39:59.107Z,101432.03
2022-09-21T13:42:33.342Z,101437.94
2022-09-21T13:45:14.526Z,101428.13
2022-09-21T13:47:54.187Z,101423.41
2022-09-21T13:50:33.051Z,101432.94
2022-09-21T13:53:28.858Z,101423.44
2022-09-21T13:56:17.105Z,101429.03
2022-09-21T13:58:48.328Z,101417.19
2022-09-21T14:01:46.650Z,101409.59
2022-09-21T14:04:38.376Z,101407.34
2022-09-21T14:07:09.361Z,101410.28
2022-09-21T14:10:15.919Z,101410.69
2022-09-21T14:12:45.673Z,101402.25
2022-09-21T14:15:20.113Z,101402.25
2022-09-21T14:18:16.223Z,101397.13
2022-09-21T14:21:09.591Z,101398.66
2022-09-21T14:23:40.092Z,101392.91
2022-09-21T14:26:34.013Z,101396.13
2022-09-21T14:29:17.953Z,101394.91
2022-09-21T14:31:46.470Z,101402.53
2022-09-21T14:34:23.856Z,101397.16
2022-09-21T14:36:56.539Z,101392.50
2022-09-21T14:39:35.694Z,101395.06
2022-09-21T14:42:13.018Z,101400.41
2022-09-21T14:44:42.731Z,101397.94
2022-09-21T14:47:21.500Z,101391.03
2022-09-21T14:50:22.982Z,101401.66
2022-09-21T14:53:14.816Z,101397.22
2022-09-21T14:56:10.462Z,101400.06
2022-09-21T14:59:16.027Z,101405.00
2022-09-21T15:01:59.919Z,101392.63
2022-09-21T15:05:13.307Z,101393.28
2022-09-21T15:08:11.851Z,101399.41
2022-09-21T15:11:39.136Z,101390.66
2022-09-21T15:14:33.512Z,101381.63
2022-09-21T15:17:26.411Z,101384.19
2022-09-21T15:19:59.668Z,101389.16
2022-09-21T15:22:28.698Z,101380.75
2022-09-21T15:25:04.687Z,101380.91
2022-09-21T15:27:38.254Z,101373.44
2022-09-21T15:30:13.390Z,101382.72
2022-09-21T15:32:46.807Z,101383.63
2022-09-21T15:35:28.019Z,101391.09
2022-09-21T15:38:03.092Z,101391.34
2022-09-21T15:40:37.906Z,101384.47
2022-09-21T15:43:12.280Z,101377.88
2022-09-21T15:45:58.343Z,101370.94
2022-09-21T15:48:27.229Z,101376.59
2022-09-21T15:51:00.232Z,101370.47
2022-09-21T15:53:33.884Z,101372.94
2022-09-21T15:56:03.284Z,101370.31
2022-09-21T15:58:37.957Z,101369.94
2022-09-21T16:01:13.462Z,101365.50
2022-09-21T16:03:43.043Z,101360.19
2022-09-21T16:06:22.835Z,101352.53
2022-09-21T16:08:51.087Z,101350.09
2022-09-21T16:11:28.546Z,101355.75
2022-09-21T16:14:38.275Z,101352.22
2022-09-21T16:17:25.836Z,101351.53
2022-09-21T16:19:56.129Z,101349.19
2022-09-21T16:22:45.292Z,101362.38
2022-09-21T16:25:24.054Z,101359.84
2022-09-21T16:28:04.888Z,101358.69
2022-09-21T16:30:53.146Z,101357.22
2022-09-21T16:33:47.779Z,101363.53
2022-09-21T16:36:19.015Z,101353.50
2022-09-21T16:38:56.284Z,101368.97
2022-09-21T16:41:32.567Z,101365.25
2022-09-21T16:44:01.115Z,101368.38
2022-09-21T16:46:29.247Z,101359.44
2022-09-21T16:48:57.393Z,101362.25
2022-09-21T16:51:27.355Z,101363.72
2022-09-21T16:54:02.939Z,101358.56
2022-09-21T16:56:30.559Z,101371.91
2022-09-21T16:59:00.518Z,101369.91
2022-09-21T17:01:28.640Z,101369.25
2022-09-21T17:03:57.100Z,101373.47
2022-09-21T17:06:24.500Z,101377.09
2022-09-21T17:08:51.976Z,101378.84
2022-09-21T17:11:20.426Z,101381.81
2022-09-21T17:13:51.375Z,101374.66
2022-09-21T17:16:20.565Z,101379.81
2022-09-21T17:18:49.268Z,101387.06
2022-09-21T17:21:17.030Z,101387.06
2022-09-21T17:23:45.766Z,101394.72
2022-09-21T17:26:21.594Z,101396.78
2022-09-21T17:28:49.083Z,101395.38
2022-09-21T17:31:16.968Z,101391.03
2022-09-21T17:33:45.904Z,101393.53
2022-09-21T17:36:18.372Z,101394.38
2022-09-21T17:38:46.057Z,101403.66
2022-09-21T17:41:23.905Z,101405.91
2022-09-21T17:44:15.264Z,101412.91
2022-09-21T17:47:09.264Z,101413.19
2022-09-21T17:49:37.827Z,101420.69
2022-09-21T17:52:38.665Z,101422.06
2022-09-21T17:55:09.087Z,101425.09
2022-09-21T17:57:42.316Z,101424.34
2022-09-21T18:00:19.722Z,101430.38
2022-09-21T18:02:48.347Z,101431.13
2022-09-21T18:05:30.191Z,101433.56
2022-09-21T18:07:57.930Z,101442.94
2022-09-21T18:10:27.412Z,101445.75
2022-09-21T18:13:13.850Z,101440.72
2022-09-21T18:16:06.616Z,101444.97
2022-09-21T18:18:49.056Z,101459.50
2022-09-21T18:21:23.126Z,101456.00
2022-09-21T18:24:19.428Z,101452.63
2022-09-21T18:26:49.225Z,101460.75
2022-09-21T18:29:39.465Z,101470.78
2022-09-21T18:32:34.540Z,101473.97
2022-09-21T18:35:24.140Z,101489.03
2022-09-21T18:38:03.743Z,101497.28
2022-09-21T18:40:36.982Z,101497.84
2022-09-21T18:43:08.193Z,101498.44
2022-09-21T18:45:46.208Z,101507.50
2022-09-21T18:48:35.030Z,101509.03
2022-09-21T18:51:14.573Z,101513.16
2022-09-21T18:53:54.060Z,101518.91
2022-09-21T18:56:22.946Z,101518.34
2022-09-21T18:58:50.816Z,101522.09
2022-09-21T19:01:24.138Z,101527.53
2022-09-21T19:03:51.974Z,101523.19
2022-09-21T19:06:34.224Z,101532.47
2022-09-21T19:09:01.784Z,101531.75
2022-09-21T19:11:47.932Z,101520.66
2022-09-21T19:14:18.147Z,101529.63
2022-09-21T19:17:07.253Z,101523.03
2022-09-21T19:20:24.161Z,101529.97
2022-09-21T19:23:13.771Z,101536.44
2022-09-21T19:25:49.713Z,101532.91
2022-09-21T19:28:41.746Z,101535.28
2022-09-21T19:31:19.432Z,101541.56
2022-09-21T19:33:50.856Z,101549.22
2022-09-21T19:36:19.857Z,101542.97
2022-09-21T19:38:47.782Z,101551.38
2022-09-21T19:41:27.192Z,101550.44
2022-09-21T19:44:35.584Z,101548.78
2022-09-21T19:47:31.858Z,101554.81
2022-09-21T19:50:23.740Z,101558.25
2022-09-21T19:53:18.566Z,101558.00
2022-09-21T19:56:07.554Z,101553.06
2022-09-21T19:59:14.948Z,101549.28
2022-09-21T20:01:52.849Z,101553.78
2022-09-21T20:04:38.810Z,101552.22
2022-09-21T20:07:49.463Z,101549.03
2022-09-21T20:10:49.250Z,101547.50
2022-09-21T20:14:01.297Z,101542.78
2022-09-21T20:16:36.802Z,101547.88
2022-09-21T20:19:31.435Z,101540.09
2022-09-21T20:22:09.304Z,101539.97
2022-09-21T20:24:43.658Z,101539.38
2022-09-21T20:27:37.851Z,101546.25
2022-09-21T20:30:12.291Z,101549.03
2022-09-21T20:32:42.509Z,101549.84
2022-09-21T20:35:23.793Z,101556.47
2022-09-21T20:37:57.478Z,101553.75
2022-09-21T20:40:29.632Z,101543.63
2022-09-21T20:42:58.532Z,101552.47
2022-09-21T20:45:26.916Z,101556.38
2022-09-21T20:47:55.565Z,101547.53
2022-09-21T20:50:26.970Z,101545.88
2022-09-21T20:52:54.488Z,101545.03
2022-09-21T20:55:21.780Z,101547.50
2022-09-21T20:57:49.290Z,101552.69
2022-09-21T21:00:17.475Z,101551.16
2022-09-21T21:02:45.240Z,101552.94
2022-09-21T21:05:12.800Z,101556.25
2022-09-21T21:07:43.698Z,101548.22
2022-09-21T21:10:16.839Z,101551.88
2022-09-21T21:12:44.998Z,101553.88
2022-09-21T21:15:12.985Z,101546.44
2022-09-21T21:17:42.505Z,101551.25
2022-09-21T21:20:10.965Z,101547.19
2022-09-21T21:22:38.167Z,101543.38
2022-09-21T21:25:05.833Z,101541.50
2022-09-21T21:27:33.547Z,101545.53
2022-09-21T21:30:02.415Z,101552.91
2022-09-21T21:32:32.699Z,101549.97
2022-09-21T21:35:00.145Z,101552.44
2022-09-21T21:37:28.783Z,101559.06
2022-09-21T21:39:59.407Z,101551.66
2022-09-21T21:42:28.766Z,101547.63
2022-09-21T21:44:56.901Z,101541.50
2022-09-21T21:47:40.871Z,101547.16
2022-09-21T21:50:10.809Z,101546.91
2022-09-21T21:52:41.076Z,101548.19
2022-09-21T21:55:09.084Z,101546.22
2022-09-21T21:57:38.844Z,101548.19
2022-09-21T22:00:10.382Z,101545.03
2022-09-21T22:02:38.324Z,101553.97
2022-09-21T22:05:06.453Z,101547.97
2022-09-21T22:07:34.028Z,101544.69
2022-09-21T22:10:01.556Z,101542.69
2022-09-21T22:12:28.879Z,101545.03
2022-09-21T22:15:00.144Z,101543.75
2022-09-21T22:17:27.749Z,101546.59
2022-09-21T22:19:57.326Z,101548.13
2022-09-21T22:22:25.469Z,101546.78
2022-09-21T22:24:52.827Z,101544.06
2022-09-21T22:27:20.160Z,101548.44
2022-09-21T22:29:48.744Z,101549.28
2022-09-21T22:32:16.765Z,101554.72
2022-09-21T22:34:44.273Z,101539.75
2022-09-21T22:37:12.143Z,101550.81
2022-09-21T22:39:39.496Z,101534.69
2022-09-21T22:42:07.863Z,101537.41
2022-09-21T22:44:35.640Z,101539.50
2022-09-21T22:47:03.111Z,101533.75
2022-09-21T22:49:30.598Z,101533.50
2022-09-21T22:51:59.961Z,101538.69
2022-09-21T22:54:28.291Z,101536.56
2022-09-21T22:56:55.927Z,101535.88
2022-09-21T22:59:23.690Z,101537.03
2022-09-21T23:01:51.142Z,101529.38
2022-09-21T23:04:18.902Z,101533.38
2022-09-21T23:06:46.686Z,101535.16
2022-09-21T23:09:20.595Z,101546.25
2022-09-21T23:11:53.875Z,101539.97
2022-09-21T23:14:24.700Z,101538.13
2022-09-21T23:16:53.715Z,101538.00
2022-09-21T23:19:21.359Z,101532.47
2022-09-21T23:21:50.499Z,101538.69
2022-09-21T23:24:19.023Z,101534.13
2022-09-21T23:26:48.127Z,101538.81
2022-09-21T23:29:16.543Z,101527.97
2022-09-21T23:31:46.023Z,101528.81
2022-09-21T23:34:17.409Z,101524.78
2022-09-21T23:36:46.238Z,101521.34
2022-09-21T23:39:16.186Z,101524.22
2022-09-21T23:41:44.385Z,101520.41
2022-09-21T23:44:11.814Z,101519.13
2022-09-21T23:46:40.952Z,101519.34
2022-09-21T23:49:09.494Z,101504.50
2022-09-21T23:51:36.915Z,101509.91
2022-09-21T23:54:05.331Z,101506.75
2022-09-21T23:56:35.202Z,101512.75
2022-09-21T23:59:02.970Z,101510.88
